Time;durP1;ratioP1;P1;durP2;ratioP2;P2;SDS_P1;SDS_P2;PMS_P1;PMS_P2;Temp;Humidity;BMP_temperature;BMP_pressure;BME280_temperature;BME280_humidity;BME280_pressure;Samples;Min_cycle;Max_cycle;Signal;HPM_P1;HPM_P2
2023/07/23 00:00:16;;;;;;;6.35;4.63;;;15.10;99.90;;;;;;4977170;28;20181;-74
2023/07/23 00:02:42;;;;;;;7.40;4.53;;;15.10;99.90;;;;;;4978188;28;20612;-74
2023/07/23 00:05:08;;;;;;;4.82;4.43;;;15.20;99.90;;;;;;4978275;28;20196;-74
2023/07/23 00:07:34;;;;;;;7.25;4.82;;;15.20;99.90;;;;;;4977204;28;20208;-74
2023/07/23 00:09:59;;;;;;;7.13;4.93;;;15.10;99.90;;;;;;4977737;28;20543;-74
2023/07/23 00:12:25;;;;;;;8.05;5.05;;;15.10;99.90;;;;;;4976939;28;20176;-74
2023/07/23 00:14:50;;;;;;;8.88;4.97;;;15.20;99.90;;;;;;4976794;28;20177;-75
2023/07/23 00:17:16;;;;;;;6.75;4.60;;;15.20;99.90;;;;;;4976528;28;20217;-75
2023/07/23 00:19:41;;;;;;;5.30;4.80;;;15.00;99.90;;;;;;4976837;28;20195;-75
2023/07/23 00:22:07;;;;;;;7.68;4.60;;;15.10;99.90;;;;;;4976665;28;20243;-75
2023/07/23 00:24:32;;;;;;;5.45;4.95;;;15.20;99.90;;;;;;4977061;28;20223;-75
2023/07/23 00:26:58;;;;;;;4.70;4.30;;;15.30;99.90;;;;;;4976478;28;20228;-75
2023/07/23 00:29:23;;;;;;;6.00;5.40;;;15.40;99.90;;;;;;4977657;28;20185;-75
2023/07/23 00:31:49;;;;;;;5.68;4.70;;;15.40;99.90;;;;;;4976572;28;20217;-75
2023/07/23 00:34:14;;;;;;;6.40;4.50;;;15.50;99.90;;;;;;4977504;28;20534;-75
2023/07/23 00:36:40;;;;;;;5.10;4.60;;;15.40;99.90;;;;;;4976618;28;20197;-75
2023/07/23 00:39:06;;;;;;;5.13;4.20;;;15.50;99.90;;;;;;4976621;28;20212;-75
2023/07/23 00:41:32;;;;;;;5.68;5.18;;;15.40;99.90;;;;;;4976251;28;20568;-75
2023/07/23 00:43:57;;;;;;;6.10;4.90;;;15.50;99.90;;;;;;4977171;28;20177;-75
2023/07/23 00:46:23;;;;;;;4.78;4.25;;;15.50;99.90;;;;;;4976330;28;20200;-75
2023/07/23 00:48:49;;;;;;;5.93;4.53;;;15.60;99.90;;;;;;4976659;28;20196;-75
2023/07/23 00:51:15;;;;;;;5.55;4.55;;;15.60;99.90;;;;;;4976512;28;20185;-75
2023/07/23 00:53:41;;;;;;;6.03;4.47;;;15.60;99.90;;;;;;4977460;28;20181;-75
2023/07/23 00:56:07;;;;;;;8.15;4.72;;;15.70;99.90;;;;;;4975566;28;20211;-75
2023/07/23 00:58:33;;;;;;;5.80;5.20;;;15.70;99.90;;;;;;4976898;28;20177;-75
2023/07/23 01:16:32;;;;;;;5.25;4.72;;;15.50;99.90;;;;;;5599174;23;20228;-75
2023/07/23 01:22:19;;;;;;;5.28;4.60;;;15.50;99.90;;;;;;4976726;28;20196;-75
2023/07/23 01:24:45;;;;;;;5.97;5.22;;;15.50;99.90;;;;;;4959391;28;20181;-75
2023/07/23 01:27:10;;;;;;;5.20;4.70;;;15.60;99.90;;;;;;4959306;28;20203;-75
2023/07/23 01:29:36;;;;;;;6.68;4.57;;;15.60;99.90;;;;;;4959811;28;20177;-75
2023/07/23 01:32:01;;;;;;;5.85;4.13;;;15.50;99.90;;;;;;4959538;28;20695;-75
2023/07/23 01:34:28;;;;;;;5.53;4.53;;;15.60;99.90;;;;;;4960043;28;20177;-75
2023/07/23 01:36:53;;;;;;;5.25;4.75;;;15.70;99.90;;;;;;4959416;28;20205;-75
2023/07/23 01:39:19;;;;;;;5.07;4.57;;;15.70;99.90;;;;;;4959981;28;20196;-75
2023/07/23 01:41:45;;;;;;;5.30;4.80;;;15.80;99.90;;;;;;4959002;28;20201;-75
2023/07/23 01:44:11;;;;;;;12.05;5.43;;;15.70;99.90;;;;;;4958992;28;20185;-75
2023/07/23 01:46:36;;;;;;;7.15;5.22;;;15.70;99.90;;;;;;4958931;28;20224;-75
2023/07/23 01:49:02;;;;;;;5.88;5.15;;;15.80;99.90;;;;;;4976230;28;20204;-75
2023/07/23 01:51:27;;;;;;;6.10;5.35;;;15.80;99.90;;;;;;4959911;28;20181;-75
2023/07/23 01:53:53;;;;;;;5.95;5.18;;;15.80;99.90;;;;;;4958800;28;20177;-75
2023/07/23 01:56:19;;;;;;;7.35;5.10;;;15.80;99.90;;;;;;4958755;28;20201;-75
2023/07/23 01:58:44;;;;;;;7.28;5.60;;;15.70;99.90;;;;;;4958766;28;20212;-75
2023/07/23 02:01:10;;;;;;;5.97;5.13;;;15.70;99.90;;;;;;4959506;28;20227;-75
2023/07/23 02:03:35;;;;;;;5.72;5.10;;;15.70;99.90;;;;;;4975858;28;20173;-75
2023/07/23 02:06:01;;;;;;;8.95;4.93;;;15.60;99.90;;;;;;4958382;28;20197;-75
2023/07/23 02:08:28;;;;;;;8.73;5.32;;;15.60;99.90;;;;;;4958571;28;20177;-75
2023/07/23 02:11:01;;;;;;;5.72;5.15;;;15.50;99.90;;;;;;4958727;28;20180;-75
2023/07/23 02:13:29;;;;;;;7.65;5.82;;;15.50;99.90;;;;;;4958409;28;20188;-75
2023/07/23 02:15:55;;;;;;;8.82;5.72;;;15.40;99.90;;;;;;4958747;28;20220;-75
2023/07/23 02:18:21;;;;;;;6.70;5.03;;;15.40;99.90;;;;;;4958432;28;20196;-75
2023/07/23 02:20:47;;;;;;;7.10;5.50;;;15.40;99.90;;;;;;4974358;28;20299;-75
2023/07/23 02:23:15;;;;;;;7.25;5.60;;;15.40;99.90;;;;;;4958242;28;20671;-75
2023/07/23 02:25:41;;;;;;;6.47;5.65;;;15.40;99.90;;;;;;4958945;28;20223;-75
2023/07/23 02:28:09;;;;;;;9.88;5.78;;;15.30;99.90;;;;;;4958212;28;20550;-75
2023/07/23 02:30:35;;;;;;;7.28;5.35;;;15.20;99.90;;;;;;4958152;28;20268;-75
2023/07/23 02:33:00;;;;;;;5.70;5.07;;;15.20;99.90;;;;;;4957966;28;20264;-75
2023/07/23 02:35:26;;;;;;;10.32;5.70;;;15.30;99.90;;;;;;4958588;28;20267;-75
2023/07/23 02:37:51;;;;;;;5.63;5.13;;;15.30;99.90;;;;;;4958143;28;20200;-75
2023/07/23 02:40:17;;;;;;;6.32;5.28;;;15.30;99.90;;;;;;4957920;28;20220;-75
2023/07/23 02:42:42;;;;;;;5.93;5.40;;;15.30;99.90;;;;;;4958693;28;20180;-75
2023/07/23 02:45:08;;;;;;;8.45;5.40;;;15.20;99.90;;;;;;4958418;28;20173;-75
2023/07/23 02:47:34;;;;;;;5.38;4.88;;;15.20;99.90;;;;;;4958041;28;20267;-75
2023/07/23 02:49:59;;;;;;;5.97;5.15;;;15.20;99.90;;;;;;4957845;28;20177;-75
2023/07/23 02:52:25;;;;;;;5.60;4.97;;;15.20;99.90;;;;;;4958541;28;20586;-75
2023/07/23 02:54:50;;;;;;;8.25;5.32;;;15.20;99.90;;;;;;4957748;28;20235;-75
2023/07/23 02:57:16;;;;;;;8.02;5.07;;;15.00;99.90;;;;;;4957564;28;20200;-75
2023/07/23 02:59:41;;;;;;;6.53;5.57;;;15.00;99.90;;;;;;4957660;28;20180;-75
2023/07/23 03:02:07;;;;;;;6.25;5.65;;;14.90;99.90;;;;;;4957571;28;20211;-75
2023/07/23 03:07:54;;;;;;;5.68;5.15;;;14.70;99.90;;;;;;4975158;28;20164;-75
2023/07/23 03:10:20;;;;;;;9.45;5.50;;;14.60;99.90;;;;;;4957589;28;20172;-75
2023/07/23 03:12:46;;;;;;;6.88;4.90;;;14.60;99.90;;;;;;4974733;28;20184;-75
2023/07/23 03:15:11;;;;;;;6.25;5.30;;;14.50;99.90;;;;;;4957801;28;20698;-75
2023/07/23 03:17:37;;;;;;;6.18;5.57;;;14.40;99.90;;;;;;4956912;28;20212;-75
2023/07/23 03:20:04;;;;;;;5.78;5.28;;;14.40;99.90;;;;;;4957423;28;20177;-75
2023/07/23 03:22:29;;;;;;;5.75;5.13;;;14.40;99.90;;;;;;4958287;28;20200;-75
2023/07/23 03:24:55;;;;;;;5.53;4.88;;;14.30;99.90;;;;;;4957304;28;20187;-75
2023/07/23 03:27:20;;;;;;;6.85;5.10;;;14.30;99.90;;;;;;4974591;28;20193;-75
2023/07/23 03:29:46;;;;;;;6.45;4.90;;;14.30;99.90;;;;;;4957382;28;20185;-75
2023/07/23 03:32:11;;;;;;;7.88;5.20;;;14.20;99.90;;;;;;4958114;28;20244;-75
2023/07/23 03:34:37;;;;;;;6.63;4.88;;;14.20;99.90;;;;;;4957280;28;20187;-75
2023/07/23 03:37:02;;;;;;;5.20;4.70;;;14.20;99.90;;;;;;4957306;28;20224;-75
2023/07/23 03:39:28;;;;;;;5.80;4.53;;;14.20;99.90;;;;;;4957519;28;20184;-75
2023/07/23 03:41:54;;;;;;;5.30;4.85;;;14.20;99.90;;;;;;4957545;28;20239;-75
2023/07/23 03:44:19;;;;;;;6.43;5.03;;;14.20;99.90;;;;;;4957502;28;20176;-75
2023/07/23 03:47:03;;;;;;;7.50;5.20;;;14.30;99.90;;;;;;4957189;28;20201;-75
2023/07/23 03:49:29;;;;;;;6.15;5.05;;;14.20;99.90;;;;;;4958035;28;20191;-75
2023/07/23 03:51:55;;;;;;;5.38;4.82;;;14.10;99.90;;;;;;4957101;28;20555;-75
2023/07/23 03:54:20;;;;;;;5.70;4.88;;;14.10;99.90;;;;;;4974415;28;20185;-75
2023/07/23 03:56:46;;;;;;;5.97;4.53;;;14.00;99.90;;;;;;4956986;28;20197;-75
2023/07/23 03:59:11;;;;;;;4.95;4.50;;;14.10;99.90;;;;;;4957151;28;20191;-75
2023/07/23 04:01:37;;;;;;;5.25;4.75;;;14.00;99.90;;;;;;4956979;28;20201;-75
2023/07/23 04:04:02;;;;;;;8.07;4.72;;;14.00;99.90;;;;;;4957963;28;20177;-75
2023/07/23 04:06:28;;;;;;;6.25;4.57;;;14.00;99.90;;;;;;4956863;28;20201;-75
2023/07/23 04:08:53;;;;;;;5.75;4.82;;;14.10;99.90;;;;;;4974292;28;20172;-75
2023/07/23 04:11:19;;;;;;;5.22;4.72;;;14.00;99.90;;;;;;4957247;28;20185;-75
2023/07/23 04:13:44;;;;;;;7.78;4.60;;;14.10;99.90;;;;;;4956908;28;20180;-75
2023/07/23 04:16:10;;;;;;;6.22;4.63;;;14.00;99.90;;;;;;4956803;28;20220;-75
2023/07/23 04:18:50;;;;;;;5.00;4.50;;;14.10;99.90;;;;;;4956902;28;20658;-75
2023/07/23 04:21:18;;;;;;;5.68;4.70;;;14.00;99.90;;;;;;4956866;28;20200;-75
2023/07/23 04:23:47;;;;;;;5.32;4.82;;;13.90;99.90;;;;;;4974239;28;20176;-75
2023/07/23 04:26:13;;;;;;;7.22;5.15;;;14.00;99.90;;;;;;4956896;28;20207;-75
2023/07/23 04:28:38;;;;;;;4.50;4.10;;;14.00;99.90;;;;;;4957326;28;20184;-75
2023/07/23 04:31:04;;;;;;;4.80;4.40;;;14.10;99.90;;;;;;4960068;28;20216;-75
2023/07/23 04:33:29;;;;;;;7.20;4.88;;;14.10;99.90;;;;;;4960336;28;20331;-75
2023/07/23 04:35:55;;;;;;;5.05;4.55;;;14.10;99.90;;;;;;4961010;28;20209;-75
2023/07/23 04:38:20;;;;;;;5.22;4.72;;;14.20;99.90;;;;;;4960474;28;20180;-75
2023/07/23 04:40:49;;;;;;;5.55;4.80;;;14.20;99.90;;;;;;4960962;28;20630;-75
2023/07/23 04:43:15;;;;;;;6.13;4.32;;;14.30;99.90;;;;;;4960500;28;20189;-75
2023/07/23 04:45:41;;;;;;;6.25;4.55;;;14.40;99.90;;;;;;4960235;28;20181;-75
2023/07/23 04:48:06;;;;;;;4.78;4.32;;;14.50;99.90;;;;;;4960401;28;20280;-75
2023/07/23 04:50:32;;;;;;;5.00;4.43;;;14.60;99.90;;;;;;4960524;28;20195;-75
2023/07/23 04:52:57;;;;;;;5.13;4.55;;;14.60;99.90;;;;;;4977135;28;20243;-75
2023/07/23 04:55:25;;;;;;;4.65;4.25;;;14.60;99.90;;;;;;4960200;28;20181;-75
2023/07/23 04:57:50;;;;;;;7.60;4.38;;;14.70;99.90;;;;;;4959753;28;20664;-75
2023/07/23 05:00:17;;;;;;;5.05;4.47;;;14.80;99.90;;;;;;4959723;28;20196;-75
2023/07/23 05:02:42;;;;;;;6.50;4.50;;;14.90;99.90;;;;;;4960074;28;20544;-75
2023/07/23 05:05:54;;;;;;;5.63;4.55;;;15.10;99.90;;;;;;4960893;28;20181;-75
2023/07/23 05:08:21;;;;;;;9.15;4.93;;;15.30;99.90;;;;;;4975796;28;20260;-75
2023/07/23 05:10:47;;;;;;;7.82;4.47;;;15.60;99.90;;;;;;4959626;28;20183;-75
2023/07/23 05:13:14;;;;;;;8.10;4.32;;;15.70;99.90;;;;;;4977173;28;20255;-75
2023/07/23 05:15:40;;;;;;;6.75;4.40;;;15.90;99.90;;;;;;4975485;28;20235;-75
2023/07/23 05:18:06;;;;;;;4.80;4.40;;;16.00;99.90;;;;;;4959562;28;20177;-75
2023/07/23 05:20:32;;;;;;;4.78;3.85;;;16.10;99.90;;;;;;4959425;28;20267;-75
2023/07/23 05:22:57;;;;;;;6.82;4.72;;;16.20;99.90;;;;;;4959229;28;20181;-75
2023/07/23 05:25:23;;;;;;;5.30;4.75;;;16.20;99.90;;;;;;4976509;28;20212;-75
2023/07/23 05:27:49;;;;;;;5.45;4.43;;;16.40;99.90;;;;;;4959296;28;20177;-75
2023/07/23 05:30:16;;;;;;;7.10;4.43;;;16.50;99.90;;;;;;4960082;28;20606;-75
2023/07/23 05:32:42;;;;;;;4.50;4.10;;;16.70;99.90;;;;;;4959545;28;20208;-75
2023/07/23 05:35:08;;;;;;;5.80;3.92;;;16.80;99.90;;;;;;4959460;28;20184;-75
2023/07/23 05:37:33;;;;;;;6.22;4.18;;;17.00;99.90;;;;;;4959402;28;20287;-75
2023/07/23 05:39:59;;;;;;;5.13;4.20;;;17.10;99.90;;;;;;4959136;28;20188;-75
2023/07/23 05:42:24;;;;;;;9.07;4.13;;;17.20;99.90;;;;;;4958687;28;20204;-75
2023/07/23 05:44:50;;;;;;;5.97;4.10;;;17.40;99.90;;;;;;4959016;28;20240;-75
2023/07/23 05:47:15;;;;;;;5.78;4.35;;;17.50;99.90;;;;;;4958934;28;20339;-75
2023/07/23 05:49:41;;;;;;;5.75;4.18;;;17.60;99.90;;;;;;4959215;28;20658;-75
2023/07/23 05:52:07;;;;;;;4.50;3.90;;;17.80;99.90;;;;;;4959761;28;20624;-75
2023/07/23 05:54:32;;;;;;;10.98;4.32;;;18.00;99.90;;;;;;4959619;28;20292;-75
2023/07/23 05:57:01;;;;;;;6.20;4.20;;;18.10;99.90;;;;;;4975991;28;20240;-75
2023/07/23 05:59:26;;;;;;;6.13;4.32;;;18.30;99.90;;;;;;4958777;28;20199;-75
2023/07/23 06:01:52;;;;;;;7.70;4.18;;;18.30;99.90;;;;;;4958635;28;20303;-75
2023/07/23 06:04:18;;;;;;;4.72;3.80;;;18.50;99.90;;;;;;4958508;28;20235;-75
2023/07/23 06:06:43;;;;;;;8.88;4.22;;;18.60;99.90;;;;;;4958560;28;20210;-75
2023/07/23 06:09:09;;;;;;;4.57;4.18;;;18.90;99.90;;;;;;4958571;28;20180;-75
2023/07/23 06:11:35;;;;;;;4.25;3.83;;;18.80;99.90;;;;;;4958563;28;20181;-75
2023/07/23 06:14:01;;;;;;;4.68;3.58;;;19.00;99.90;;;;;;4958538;28;20184;-75
2023/07/23 06:16:26;;;;;;;6.70;3.50;;;19.10;99.90;;;;;;4958543;28;20220;-75
2023/07/23 06:18:52;;;;;;;4.10;3.70;;;19.10;99.90;;;;;;4959169;28;20192;-75
2023/07/23 06:21:17;;;;;;;6.22;3.80;;;19.10;99.90;;;;;;4958716;28;20228;-76
2023/07/23 06:23:43;;;;;;;3.95;3.55;;;19.20;99.90;;;;;;4959086;28;20191;-76
2023/07/23 06:26:08;;;;;;;4.78;3.65;;;19.50;99.90;;;;;;4958659;28;20201;-76
2023/07/23 06:28:34;;;;;;;4.47;3.65;;;19.70;99.90;;;;;;4958556;28;20744;-76
2023/07/23 06:31:00;;;;;;;6.75;3.70;;;19.80;99.90;;;;;;4959192;28;20328;-76
2023/07/23 06:33:25;;;;;;;6.03;4.20;;;19.90;99.90;;;;;;4958371;28;20547;-76
2023/07/23 06:35:51;;;;;;;5.82;3.97;;;20.00;99.90;;;;;;4958245;28;20659;-76
2023/07/23 06:38:17;;;;;;;9.20;3.70;;;20.20;99.90;;;;;;4958289;28;20654;-76
2023/07/23 06:40:46;;;;;;;5.10;3.72;;;20.50;99.90;;;;;;4957887;28;20215;-76
2023/07/23 06:43:16;;;;;;;7.15;3.50;;;21.20;98.90;;;;;;4958261;28;20177;-76
2023/07/23 06:45:43;;;;;;;6.15;3.67;;;22.00;97.00;;;;;;4975041;28;20204;-76
2023/07/23 06:48:09;;;;;;;5.15;3.40;;;22.90;94.40;;;;;;4957925;28;20180;-76
2023/07/23 06:50:34;;;;;;;4.38;3.53;;;23.50;92.20;;;;;;4957807;28;20224;-76
2023/07/23 06:53:00;;;;;;;6.97;3.65;;;24.00;90.40;;;;;;4957396;28;20177;-76
2023/07/23 06:55:26;;;;;;;7.43;3.70;;;23.90;87.70;;;;;;4958475;28;20215;-76
2023/07/23 06:57:51;;;;;;;4.85;3.38;;;23.60;89.00;;;;;;4957806;28;20183;-76
2023/07/23 07:00:17;;;;;;;4.32;3.92;;;23.40;89.30;;;;;;4957743;28;20187;-76
2023/07/23 07:02:42;;;;;;;5.85;3.65;;;23.10;87.20;;;;;;4957597;28;20299;-76
2023/07/23 07:05:09;;;;;;;5.90;3.55;;;22.90;87.80;;;;;;4958575;28;20268;-76
2023/07/23 07:07:35;;;;;;;5.07;3.63;;;22.80;89.40;;;;;;4957997;28;20204;-76
2023/07/23 07:10:02;;;;;;;11.65;4.00;;;22.60;88.00;;;;;;4957589;28;20177;-76
2023/07/23 07:12:28;;;;;;;3.95;3.35;;;22.60;88.50;;;;;;4975010;28;20192;-76
2023/07/23 07:14:55;;;;;;;4.60;3.10;;;22.40;85.50;;;;;;4957999;28;20312;-76
2023/07/23 07:17:21;;;;;;;3.95;3.28;;;22.20;85.80;;;;;;4958073;28;20758;-76
2023/07/23 07:19:46;;;;;;;3.55;3.13;;;22.10;87.00;;;;;;4958298;28;20189;-76
2023/07/23 07:22:12;;;;;;;3.50;3.20;;;22.10;86.10;;;;;;4957489;28;20212;-76
2023/07/23 07:24:37;;;;;;;3.40;3.10;;;22.10;86.10;;;;;;4957392;28;20268;-76
2023/07/23 07:27:09;;;;;;;6.63;3.17;;;22.20;86.50;;;;;;4958111;28;20606;-76
2023/07/23 07:29:39;;;;;;;3.80;3.45;;;22.30;85.50;;;;;;4957657;28;20161;-76
2023/07/23 07:32:06;;;;;;;5.25;3.40;;;22.60;85.90;;;;;;4957453;28;20256;-76
2023/07/23 07:34:32;;;;;;;3.53;3.15;;;22.70;84.20;;;;;;4957540;28;20185;-76
2023/07/23 07:36:57;;;;;;;4.25;3.30;;;22.80;84.00;;;;;;4974772;28;20197;-76
2023/07/23 07:39:23;;;;;;;8.15;3.38;;;22.80;83.40;;;;;;4957482;28;20177;-76
2023/07/23 07:41:48;;;;;;;5.30;3.55;;;22.90;82.50;;;;;;4957484;28;20209;-76
2023/07/23 07:44:14;;;;;;;4.28;3.35;;;23.00;82.30;;;;;;4957902;28;20204;-76
2023/07/23 07:46:39;;;;;;;5.55;3.25;;;23.30;82.40;;;;;;4957740;28;20714;-76
2023/07/23 07:49:05;;;;;;;6.75;3.35;;;23.60;80.80;;;;;;4957424;28;20551;-76
2023/07/23 07:51:31;;;;;;;3.30;3.00;;;24.00;77.60;;;;;;4957158;28;20682;-76
2023/07/23 07:53:56;;;;;;;12.27;3.70;;;24.20;74.30;;;;;;4957476;28;20184;-76
2023/07/23 07:56:22;;;;;;;7.35;3.30;;;24.30;73.90;;;;;;4957868;28;20197;-76
2023/07/23 07:58:48;;;;;;;4.40;3.08;;;24.30;72.60;;;;;;4957842;28;20185;-76
2023/07/23 08:01:14;;;;;;;5.22;3.53;;;24.20;72.00;;;;;;4957215;28;20208;-76
2023/07/23 08:03:40;;;;;;;4.53;3.17;;;24.30;73.20;;;;;;4957541;28;20556;-76
2023/07/23 08:06:06;;;;;;;7.15;3.22;;;24.30;72.30;;;;;;4960817;28;20201;-76
2023/07/23 08:08:45;;;;;;;6.68;3.20;;;24.10;72.20;;;;;;4961635;28;20235;-76
2023/07/23 08:11:12;;;;;;;3.42;3.13;;;24.10;73.50;;;;;;4960921;28;20593;-76
2023/07/23 08:13:38;;;;;;;3.60;3.30;;;24.10;73.60;;;;;;4960657;28;20255;-76
2023/07/23 08:16:05;;;;;;;4.20;3.22;;;24.10;74.10;;;;;;4961111;28;20271;-76
2023/07/23 08:18:31;;;;;;;8.00;3.33;;;24.20;73.30;;;;;;4960709;28;20187;-76
2023/07/23 08:20:57;;;;;;;4.53;3.22;;;24.40;72.60;;;;;;4960380;28;20291;-76
2023/07/23 08:23:25;;;;;;;4.88;3.10;;;24.70;73.60;;;;;;4978122;28;20201;-76
2023/07/23 08:25:55;;;;;;;4.15;3.03;;;24.90;70.40;;;;;;4960429;28;20284;-76
2023/07/23 08:28:22;;;;;;;4.97;3.28;;;24.90;69.50;;;;;;4961258;28;20169;-76
2023/07/23 08:30:48;;;;;;;3.17;2.88;;;25.10;70.90;;;;;;4960319;28;20180;-76
2023/07/23 08:33:17;;;;;;;3.08;2.88;;;25.20;70.20;;;;;;4960916;28;20231;-76
2023/07/23 08:36:34;;;;;;;5.43;2.72;;;25.50;67.70;;;;;;4960412;28;20259;-76
2023/07/23 08:39:00;;;;;;;4.13;2.28;;;25.70;66.10;;;;;;4961145;28;20284;-76
2023/07/23 08:41:26;;;;;;;12.75;2.20;;;26.00;61.50;;;;;;4960056;28;20299;-76
2023/07/23 08:44:16;;;;;;;20.75;2.35;;;26.20;60.80;;;;;;4960990;28;20185;-76
2023/07/23 08:46:47;;;;;;;11.23;2.60;;;26.30;59.20;;;;;;4959933;28;20212;-76
2023/07/23 08:49:16;;;;;;;2.45;1.95;;;26.50;58.80;;;;;;4960830;28;20571;-76
2023/07/23 08:51:45;;;;;;;1.95;1.85;;;26.60;57.60;;;;;;4960230;28;20177;-76
2023/07/23 08:54:12;;;;;;;3.95;1.70;;;26.50;56.80;;;;;;4977347;28;20177;-76
2023/07/23 08:56:39;;;;;;;1.90;1.80;;;26.50;56.50;;;;;;4959731;28;20205;-76
2023/07/23 08:59:06;;;;;;;1.80;1.70;;;26.60;55.80;;;;;;4977137;28;20180;-76
2023/07/23 09:01:34;;;;;;;3.95;1.90;;;26.60;55.40;;;;;;4959725;28;20307;-76
2023/07/23 09:04:01;;;;;;;4.20;1.85;;;26.40;54.10;;;;;;4960524;28;20185;-77
2023/07/23 09:06:47;;;;;;;6.25;1.90;;;26.20;54.00;;;;;;4960351;28;20215;-76
2023/07/23 09:09:24;;;;;;;4.13;1.70;;;26.10;54.50;;;;;;4959653;28;20176;-76
2023/07/23 09:12:03;;;;;;;2.97;1.60;;;26.10;55.60;;;;;;4959789;28;20178;-77
2023/07/23 09:14:49;;;;;;;3.28;1.60;;;26.20;56.20;;;;;;4977534;28;20153;-76
2023/07/23 09:17:19;;;;;;;6.00;1.70;;;26.30;55.90;;;;;;4959117;28;20216;-76
2023/07/23 09:19:45;;;;;;;7.90;1.73;;;26.30;56.10;;;;;;4960288;28;20185;-79
2023/07/23 09:22:17;;;;;;;4.72;1.67;;;26.10;55.20;;;;;;4959335;28;20209;-77
2023/07/23 09:24:43;;;;;;;2.60;1.70;;;26.10;56.10;;;;;;4960549;28;20173;-77
2023/07/23 09:27:12;;;;;;;1.65;1.52;;;26.40;56.10;;;;;;4959420;28;20680;-77
2023/07/23 09:33:06;;;;;;;3.10;1.50;;;26.60;55.90;;;;;;4976537;28;20245;-77
2023/07/23 09:35:31;;;;;;;1.92;1.58;;;26.80;56.00;;;;;;4976669;28;20154;-77
2023/07/23 09:37:58;;;;;;;2.92;1.80;;;27.10;56.50;;;;;;4977097;28;20244;-77
2023/07/23 09:40:41;;;;;;;1.80;1.70;;;27.30;55.40;;;;;;4959441;28;20184;-77
2023/07/23 09:43:08;;;;;;;5.05;1.60;;;27.50;56.20;;;;;;4959372;28;20199;-76
2023/07/23 09:45:39;;;;;;;3.03;1.80;;;27.70;55.70;;;;;;4959287;28;20260;-76
2023/07/23 09:48:05;;;;;;;6.18;1.90;;;27.80;55.30;;;;;;4976346;28;20196;-76
2023/07/23 09:50:31;;;;;;;1.88;1.70;;;27.90;54.50;;;;;;4959406;28;20181;-76
2023/07/23 09:52:57;;;;;;;5.65;2.03;;;28.10;54.20;;;;;;4958943;28;20181;-76
2023/07/23 09:55:23;;;;;;;4.43;1.60;;;27.90;53.10;;;;;;4976269;28;20227;-76
2023/07/23 09:57:53;;;;;;;3.83;1.90;;;27.80;52.30;;;;;;4960624;28;20204;-77
2023/07/23 10:00:20;;;;;;;2.53;1.85;;;27.50;52.40;;;;;;4958942;28;20620;-77
2023/07/23 10:02:49;;;;;;;2.55;1.60;;;27.40;53.00;;;;;;4958450;28;20215;-78
2023/07/23 10:05:17;;;;;;;5.68;1.67;;;27.50;54.40;;;;;;4959139;28;20669;-77
2023/07/23 10:08:03;;;;;;;2.08;1.70;;;27.50;53.00;;;;;;4958404;28;20200;-77
2023/07/23 10:10:29;;;;;;;5.10;1.80;;;27.50;53.40;;;;;;4958776;28;20212;-77
2023/07/23 10:12:54;;;;;;;1.90;1.55;;;27.40;52.40;;;;;;4958572;28;20217;-77
2023/07/23 10:15:21;;;;;;;3.90;1.65;;;27.30;53.00;;;;;;4958476;28;20219;-77
2023/07/23 10:17:56;;;;;;;1.63;1.52;;;27.40;52.70;;;;;;4938989;29;20228;-77
2023/07/23 10:20:22;;;;;;;2.03;1.70;;;27.50;51.20;;;;;;4956015;29;20176;-77
2023/07/23 10:22:48;;;;;;;2.50;1.38;;;27.60;51.90;;;;;;4938983;29;20209;-77
2023/07/23 10:25:24;;;;;;;2.83;1.40;;;28.00;52.60;;;;;;4955481;29;20188;-77
2023/07/23 10:28:01;;;;;;;2.53;1.48;;;28.50;52.00;;;;;;4938103;29;20205;-77
2023/07/23 10:30:39;;;;;;;3.33;1.58;;;28.90;50.60;;;;;;4939871;29;20177;-77
2023/07/23 10:33:10;;;;;;;7.22;1.70;;;29.00;50.10;;;;;;4938983;29;20176;-77
2023/07/23 10:36:04;;;;;;;3.15;1.67;;;29.10;48.80;;;;;;4938882;28;20201;-77
2023/07/23 10:38:36;;;;;;;2.83;1.80;;;28.90;49.10;;;;;;4939557;29;20173;-77
2023/07/23 10:41:03;;;;;;;6.07;1.73;;;28.70;48.90;;;;;;4938922;29;20204;-77
2023/07/23 10:43:45;;;;;;;2.17;1.98;;;28.50;48.60;;;;;;4938775;29;20181;-77
2023/07/23 10:46:18;;;;;;;4.00;1.70;;;28.00;48.50;;;;;;4955522;28;20204;-77
2023/07/23 10:49:38;;;;;;;3.15;1.73;;;27.80;50.40;;;;;;4938835;29;20204;-77
2023/07/23 10:52:16;;;;;;;3.15;2.00;;;27.50;51.50;;;;;;4955342;29;20221;-77
2023/07/23 10:54:42;;;;;;;5.53;1.80;;;27.10;52.70;;;;;;4938590;29;20213;-77
2023/07/23 10:57:08;;;;;;;3.28;1.60;;;27.10;52.80;;;;;;4955278;28;20236;-77
2023/07/23 10:59:38;;;;;;;3.10;1.83;;;27.20;53.60;;;;;;4938463;29;20220;-77
2023/07/23 11:02:04;;;;;;;2.55;1.88;;;27.20;53.10;;;;;;4938493;29;20209;-77
2023/07/23 11:04:38;;;;;;;2.38;1.55;;;27.10;53.50;;;;;;4938339;29;20181;-77
2023/07/23 11:07:06;;;;;;;2.30;1.80;;;27.10;53.70;;;;;;4939054;29;20309;-77
2023/07/23 11:09:34;;;;;;;2.10;2.00;;;27.30;54.30;;;;;;4938738;29;20178;-77
2023/07/23 11:12:03;;;;;;;2.15;1.95;;;27.20;53.90;;;;;;4939709;29;20240;-78
2023/07/23 11:14:30;;;;;;;2.17;2.03;;;27.30;54.00;;;;;;4954674;29;20212;-77
2023/07/23 11:17:07;;;;;;;2.58;1.90;;;27.30;54.90;;;;;;4954106;28;20220;-77
2023/07/23 11:19:34;;;;;;;6.18;2.20;;;27.40;54.90;;;;;;4974773;28;20254;-77
2023/07/23 11:22:24;;;;;;;1.92;1.83;;;27.30;55.40;;;;;;4974212;28;20197;-81
2023/07/23 11:24:49;;;;;;;2.20;1.90;;;27.40;55.70;;;;;;4970939;28;20628;-77
2023/07/23 11:27:17;;;;;;;2.00;1.90;;;27.50;54.40;;;;;;4936836;29;20204;-77
2023/07/23 11:29:43;;;;;;;4.57;1.80;;;27.70;54.20;;;;;;4938429;29;20205;-77
2023/07/23 11:32:08;;;;;;;3.00;1.90;;;27.70;54.10;;;;;;4938962;29;20251;-77
2023/07/23 11:34:36;;;;;;;7.53;2.10;;;27.40;54.40;;;;;;4938309;29;20667;-77
2023/07/23 11:37:02;;;;;;;3.55;2.05;;;27.40;54.40;;;;;;4955972;28;20329;-78
2023/07/23 11:39:28;;;;;;;2.13;1.80;;;27.30;55.70;;;;;;4940074;29;20195;-78
2023/07/23 11:41:54;;;;;;;2.67;1.90;;;27.40;54.90;;;;;;4942356;29;20668;-77
2023/07/23 11:44:20;;;;;;;2.78;1.70;;;27.60;54.10;;;;;;4942476;29;20617;-77
2023/07/23 11:46:45;;;;;;;1.90;1.80;;;27.60;54.30;;;;;;4942410;29;20668;-77
2023/07/23 11:50:02;;;;;;;2.08;1.95;;;27.60;54.10;;;;;;4942416;29;20181;-78
2023/07/23 11:53:22;;;;;;;1.90;1.80;;;27.50;54.50;;;;;;4942391;29;20177;-77
2023/07/23 11:59:23;;;;;;;2.08;1.90;;;27.60;53.10;;;;;;4960256;29;20165;-77
2023/07/23 12:02:11;;;;;;;2.88;1.60;;;27.70;52.80;;;;;;4942064;29;20217;-78
2023/07/23 12:04:38;;;;;;;1.60;1.50;;;27.90;53.20;;;;;;4941863;29;20173;-77
2023/07/23 12:07:05;;;;;;;2.03;1.80;;;28.00;53.30;;;;;;4941642;29;20224;-77
2023/07/23 12:09:36;;;;;;;2.38;1.70;;;28.10;53.00;;;;;;4941836;29;20178;-77
2023/07/23 12:12:02;;;;;;;2.30;2.10;;;27.90;52.40;;;;;;4941549;29;20233;-77
2023/07/23 12:14:28;;;;;;;2.00;1.80;;;27.90;53.20;;;;;;4942020;29;20201;-77
2023/07/23 12:16:56;;;;;;;1.90;1.80;;;27.70;53.40;;;;;;4941435;29;20299;-77
2023/07/23 12:19:22;;;;;;;3.13;1.73;;;27.80;54.10;;;;;;4941792;29;20248;-77
2023/07/23 12:21:57;;;;;;;1.92;1.83;;;27.70;53.10;;;;;;4958837;28;20204;-77
2023/07/23 12:24:40;;;;;;;1.85;1.75;;;27.70;53.20;;;;;;4941566;29;20232;-77
2023/07/23 12:27:07;;;;;;;2.67;1.55;;;27.60;53.00;;;;;;4941523;29;20272;-77
2023/07/23 12:29:45;;;;;;;3.60;1.70;;;27.50;53.20;;;;;;4941798;29;20178;-77
2023/07/23 12:35:37;;;;;;;2.10;2.00;;;27.30;53.00;;;;;;4958690;29;20189;-77
2023/07/23 12:38:22;;;;;;;4.90;2.00;;;27.10;54.20;;;;;;4942004;29;20174;-77
2023/07/23 12:40:47;;;;;;;5.47;1.90;;;26.90;54.00;;;;;;4941517;29;20260;-77
2023/07/23 12:43:13;;;;;;;1.67;1.58;;;26.70;54.50;;;;;;4941338;29;20272;-77
2023/07/23 12:45:54;;;;;;;1.85;1.60;;;26.50;55.00;;;;;;4942904;28;20182;-76
2023/07/23 12:48:20;;;;;;;1.80;1.70;;;26.30;54.40;;;;;;4941032;29;20249;-77
2023/07/23 12:51:42;;;;;;;3.60;2.00;;;26.10;54.90;;;;;;4939558;29;20268;-76
2023/07/23 12:54:08;;;;;;;2.78;1.83;;;26.10;55.70;;;;;;4963020;28;20225;-76
2023/07/23 12:56:40;;;;;;;1.90;1.80;;;26.40;55.70;;;;;;4941127;29;20253;-77
2023/07/23 12:59:18;;;;;;;4.32;1.80;;;26.90;55.60;;;;;;4940769;29;20213;-77
2023/07/23 13:01:47;;;;;;;3.08;2.20;;;27.10;54.10;;;;;;4957870;29;20223;-77
2023/07/23 13:04:13;;;;;;;3.53;1.98;;;27.30;52.80;;;;;;4940927;29;20173;-77
2023/07/23 13:06:38;;;;;;;2.33;1.85;;;27.40;52.20;;;;;;4940842;29;20204;-77
2023/07/23 13:09:04;;;;;;;3.47;1.83;;;27.40;51.90;;;;;;4958041;28;20674;-77
2023/07/23 13:11:36;;;;;;;2.65;1.75;;;27.50;51.00;;;;;;4940588;29;20185;-77
2023/07/23 13:14:04;;;;;;;2.53;1.80;;;27.50;50.80;;;;;;4940712;29;20293;-77
2023/07/23 13:16:34;;;;;;;2.13;1.83;;;27.30;49.50;;;;;;4940598;29;20217;-78
2023/07/23 13:18:59;;;;;;;1.90;1.80;;;27.20;50.30;;;;;;4940413;29;20224;-77
2023/07/23 13:21:26;;;;;;;6.90;2.22;;;27.00;50.60;;;;;;4940763;28;20288;-76
2023/07/23 13:23:52;;;;;;;2.28;2.08;;;26.70;50.90;;;;;;4949427;29;20190;-76